Time;durP1;ratioP1;P1;durP2;ratioP2;P2;SDS_P1;SDS_P2;PMS_P1;PMS_P2;Temp;Humidity;BMP_temperature;BMP_pressure;BME280_temperature;BME280_humidity;BME280_pressure;Samples;Min_cycle;Max_cycle;Signal;HPM_P1;HPM_P2
2021/05/03 00:00:12;;;;;;;3.15;2.00;;;333.50;1792.00;;;;;;5036253;28;20032;-63
2021/05/03 00:02:38;;;;;;;2.17;1.80;;;333.40;1817.60;;;;;;5036396;28;20057;-62
2021/05/03 00:05:06;;;;;;;3.72;1.90;;;333.30;1817.60;;;;;;5036191;28;20059;-60
2021/05/03 00:07:32;;;;;;;2.00;1.70;;;333.30;1817.60;;;;;;5035432;28;20033;-65
2021/05/03 00:09:58;;;;;;;2.70;1.77;;;333.30;1817.60;;;;;;5036436;28;20067;-63
2021/05/03 00:12:24;;;;;;;2.95;1.88;;;333.30;1843.20;;;;;;5036309;28;20382;-62
2021/05/03 00:14:53;;;;;;;3.42;1.80;;;333.30;1817.60;;;;;;5036313;28;20101;-59
2021/05/03 00:17:18;;;;;;;2.53;1.83;;;333.30;1817.60;;;;;;5034881;28;20045;-62
2021/05/03 00:19:44;;;;;;;3.78;1.80;;;333.20;1843.20;;;;;;5035893;28;20025;-63
2021/05/03 00:22:11;;;;;;;2.55;1.80;;;333.20;1843.20;;;;;;5036259;28;20022;-61
2021/05/03 00:24:36;;;;;;;2.58;2.00;;;333.20;1843.20;;;;;;5035995;28;20025;-61
2021/05/03 00:27:02;;;;;;;2.35;1.85;;;333.20;1843.20;;;;;;5036082;28;20436;-63
2021/05/03 00:29:28;;;;;;;2.20;1.90;;;333.20;1843.20;;;;;;5035696;28;20471;-62
2021/05/03 00:31:54;;;;;;;3.63;2.00;;;333.20;1843.20;;;;;;5035839;28;20029;-62
2021/05/03 00:34:19;;;;;;;2.90;1.98;;;333.20;1843.20;;;;;;5035843;28;20367;-63
2021/05/03 00:36:45;;;;;;;4.60;2.00;;;333.20;1843.20;;;;;;5035920;28;20044;-59
2021/05/03 00:39:11;;;;;;;2.55;1.83;;;333.20;1843.20;;;;;;5035687;28;20439;-62
2021/05/03 00:41:37;;;;;;;2.65;1.90;;;333.10;1843.20;;;;;;5035573;28;20026;-64
2021/05/03 00:44:03;;;;;;;2.85;2.10;;;333.10;1843.20;;;;;;5035931;28;20387;-61
2021/05/03 00:46:29;;;;;;;2.63;1.80;;;332.80;1843.20;;;;;;5035389;28;20392;-62
2021/05/03 00:48:55;;;;;;;3.15;1.90;;;332.90;1843.20;;;;;;5035790;28;20104;-62
2021/05/03 00:51:21;;;;;;;2.33;1.90;;;332.90;1843.20;;;;;;5035734;28;20388;-60
2021/05/03 00:53:46;;;;;;;2.40;1.95;;;332.90;1843.20;;;;;;5035366;28;20030;-61
2021/05/03 00:56:12;;;;;;;2.28;1.83;;;332.80;1843.20;;;;;;5034057;28;20030;-60
2021/05/03 00:58:38;;;;;;;2.70;2.20;;;332.80;1868.80;;;;;;5035561;28;20037;-61
2021/05/03 01:01:04;;;;;;;3.30;1.95;;;332.80;1843.20;;;;;;5035199;28;20390;-63
2021/05/03 01:03:31;;;;;;;2.50;2.00;;;332.80;1868.80;;;;;;5035175;28;20026;-59
2021/05/03 01:05:56;;;;;;;2.50;1.85;;;332.80;1868.80;;;;;;5035359;28;20029;-61
2021/05/03 01:08:22;;;;;;;2.60;2.20;;;332.80;1843.20;;;;;;5035418;28;20460;-63
2021/05/03 01:10:48;;;;;;;2.10;1.85;;;332.90;1868.80;;;;;;5034952;28;20025;-61
2021/05/03 01:13:13;;;;;;;3.10;1.90;;;332.90;1868.80;;;;;;5035224;28;20083;-61
2021/05/03 01:15:39;;;;;;;2.85;1.80;;;332.90;1868.80;;;;;;5034874;28;20452;-60
2021/05/03 01:18:05;;;;;;;2.92;2.10;;;332.90;1868.80;;;;;;5034897;28;20034;-59
2021/05/03 01:20:34;;;;;;;3.00;1.90;;;333.00;1843.20;;;;;;5035348;28;20026;-60
2021/05/03 01:23:00;;;;;;;2.25;1.90;;;333.00;1843.20;;;;;;5034752;28;20472;-61
2021/05/03 01:25:32;;;;;;;3.60;2.10;;;333.00;1843.20;;;;;;5034577;28;20392;-66
2021/05/03 01:28:01;;;;;;;2.72;2.10;;;333.00;1843.20;;;;;;5033673;28;20025;-59
2021/05/03 01:30:37;;;;;;;3.10;2.25;;;333.00;1817.60;;;;;;5034561;28;20057;-63
2021/05/03 01:33:04;;;;;;;4.18;2.30;;;333.00;1817.60;;;;;;5034624;28;20029;-62
2021/05/03 01:35:30;;;;;;;2.40;2.08;;;333.00;1843.20;;;;;;5034224;28;20029;-60
2021/05/03 01:37:58;;;;;;;3.00;2.00;;;333.00;1843.20;;;;;;5034467;28;20040;-64
2021/05/03 01:40:26;;;;;;;2.83;2.20;;;333.00;1843.20;;;;;;5034582;28;20034;-59
2021/05/03 01:42:52;;;;;;;2.70;2.13;;;332.90;1843.20;;;;;;5034510;28;20090;-60
2021/05/03 01:45:26;;;;;;;2.90;2.08;;;332.90;1843.20;;;;;;5034435;28;20120;-62
2021/05/03 01:47:54;;;;;;;3.10;2.10;;;333.00;1843.20;;;;;;5049680;28;20052;-61
2021/05/03 01:50:21;;;;;;;2.40;2.03;;;332.90;1868.80;;;;;;5034516;28;20029;-64
2021/05/03 01:52:48;;;;;;;2.75;2.10;;;332.90;1843.20;;;;;;5034333;28;20101;-61
2021/05/03 01:55:14;;;;;;;2.53;1.98;;;332.80;1843.20;;;;;;5034578;28;20025;-60
2021/05/03 01:57:40;;;;;;;2.63;2.08;;;332.80;1868.80;;;;;;5034127;28;20156;-60
2021/05/03 02:00:08;;;;;;;2.58;1.98;;;332.80;1868.80;;;;;;5034303;28;20025;-60
2021/05/03 02:02:34;;;;;;;2.38;1.92;;;308.10;1843.20;;;;;;5034056;28;20029;-63
2021/05/03 02:05:00;;;;;;;3.17;2.28;;;308.00;1843.20;;;;;;5034084;28;20029;-63
2021/05/03 02:07:26;;;;;;;3.33;1.90;;;307.90;1843.20;;;;;;5034065;28;20033;-64
2021/05/03 02:09:51;;;;;;;2.47;2.00;;;307.90;1843.20;;;;;;5034094;28;20030;-62
2021/05/03 02:12:17;;;;;;;2.55;2.00;;;307.90;1843.20;;;;;;5034034;28;20052;-59
2021/05/03 02:14:43;;;;;;;2.60;1.92;;;307.80;1843.20;;;;;;5034017;28;20438;-60
2021/05/03 02:17:10;;;;;;;2.78;1.83;;;307.80;1868.80;;;;;;5033817;28;20483;-60
2021/05/03 02:19:36;;;;;;;2.53;2.00;;;307.80;1868.80;;;;;;5033882;28;20091;-61
2021/05/03 02:22:03;;;;;;;2.35;1.90;;;307.80;1868.80;;;;;;5033920;28;20025;-60
2021/05/03 02:24:29;;;;;;;3.30;2.00;;;307.60;1868.80;;;;;;5034025;28;20053;-60
2021/05/03 02:26:55;;;;;;;3.47;2.13;;;307.70;1894.40;;;;;;5033708;28;20036;-59
2021/05/03 02:29:21;;;;;;;2.50;2.13;;;307.70;1894.40;;;;;;5033157;28;20051;-58
2021/05/03 02:31:46;;;;;;;2.85;2.00;;;307.70;1894.40;;;;;;5032422;28;20120;-58
2021/05/03 02:34:12;;;;;;;2.40;1.80;;;307.60;1894.40;;;;;;5033546;28;20029;-61
2021/05/03 02:36:38;;;;;;;2.70;2.13;;;307.60;1920.00;;;;;;5034107;28;20040;-61
2021/05/03 02:39:04;;;;;;;2.63;2.05;;;307.50;1945.60;;;;;;5033647;28;20022;-58
2021/05/03 02:41:33;;;;;;;2.15;1.80;;;307.50;1945.60;;;;;;5033601;28;20033;-59
2021/05/03 02:44:00;;;;;;;2.60;2.20;;;307.40;1945.60;;;;;;5033437;28;20067;-60
2021/05/03 02:46:28;;;;;;;2.92;2.10;;;307.40;1971.20;;;;;;5033726;28;20025;-60
2021/05/03 02:48:54;;;;;;;2.63;1.80;;;307.30;1945.60;;;;;;5032317;28;20026;-60
2021/05/03 02:51:20;;;;;;;2.05;1.83;;;307.20;1945.60;;;;;;5033654;28;20028;-58
2021/05/03 02:53:46;;;;;;;2.97;1.85;;;307.20;1945.60;;;;;;5033480;28;20101;-59
2021/05/03 02:56:12;;;;;;;2.78;2.25;;;282.50;1920.00;;;;;;5033360;28;20037;-59
2021/05/03 02:58:37;;;;;;;2.50;2.13;;;307.20;1945.60;;;;;;5033634;28;20025;-59
2021/05/03 03:01:03;;;;;;;2.85;2.08;;;307.20;1945.60;;;;;;5033639;28;20029;-59
2021/05/03 03:03:29;;;;;;;3.05;2.30;;;282.50;1920.00;;;;;;5032159;28;20506;-58
2021/05/03 03:05:57;;;;;;;2.97;2.20;;;307.20;1971.20;;;;;;5033527;28;20156;-60
2021/05/03 03:08:22;;;;;;;2.35;1.95;;;282.50;1945.60;;;;;;5033657;28;20034;-62
2021/05/03 03:10:48;;;;;;;3.45;2.25;;;282.50;1971.20;;;;;;5033441;28;20071;-59
2021/05/03 03:13:14;;;;;;;2.92;2.20;;;282.50;1945.60;;;;;;5033266;28;20030;-62
2021/05/03 03:15:39;;;;;;;2.60;2.17;;;282.50;1945.60;;;;;;5033372;28;20367;-59
2021/05/03 03:18:06;;;;;;;2.75;2.10;;;282.50;1971.20;;;;;;5032050;28;20051;-59
2021/05/03 03:20:31;;;;;;;3.08;2.20;;;307.20;1996.80;;;;;;5033262;28;20048;-58
2021/05/03 03:22:57;;;;;;;3.40;2.40;;;307.20;1996.80;;;;;;5033499;28;20463;-60
2021/05/03 03:25:23;;;;;;;3.13;2.30;;;282.40;1971.20;;;;;;5033406;28;20014;-59
2021/05/03 03:27:49;;;;;;;2.80;2.40;;;282.50;1996.80;;;;;;5033180;28;20022;-59
2021/05/03 03:30:17;;;;;;;6.05;2.30;;;307.20;2022.40;;;;;;5033094;28;20049;-60
2021/05/03 03:32:44;;;;;;;3.63;2.25;;;307.20;1996.80;;;;;;5033068;28;20028;-59
2021/05/03 03:35:20;;;;;;;3.20;2.50;;;282.50;1996.80;;;;;;5033352;28;20068;-60
2021/05/03 03:37:47;;;;;;;2.97;2.20;;;282.50;1996.80;;;;;;5033109;28;20112;-59
2021/05/03 03:40:16;;;;;;;3.78;2.30;;;307.20;2022.40;;;;;;5032851;28;20018;-60
2021/05/03 03:42:42;;;;;;;2.97;2.38;;;307.20;2022.40;;;;;;5036123;28;20050;-60
2021/05/03 03:45:10;;;;;;;2.88;2.20;;;282.50;1971.20;;;;;;5036548;28;20028;-59
2021/05/03 03:47:35;;;;;;;2.90;2.20;;;282.50;1971.20;;;;;;5037109;28;20356;-58
2021/05/03 03:50:02;;;;;;;3.42;2.20;;;282.50;1945.60;;;;;;5036753;28;20079;-61
2021/05/03 03:52:28;;;;;;;2.85;2.30;;;282.50;1971.20;;;;;;5036886;28;20155;-60
2021/05/03 03:54:53;;;;;;;2.63;2.22;;;282.50;1971.20;;;;;;5051512;28;20045;-60
2021/05/03 03:57:19;;;;;;;3.70;2.20;;;282.50;1971.20;;;;;;5036446;28;20436;-59
2021/05/03 03:59:48;;;;;;;2.90;2.30;;;282.50;1971.20;;;;;;5036343;28;20025;-60
2021/05/03 04:02:14;;;;;;;2.80;2.17;;;307.20;1996.80;;;;;;5036863;28;20026;-59
2021/05/03 04:04:44;;;;;;;4.00;2.42;;;307.20;1996.80;;;;;;5036670;28;20045;-61
2021/05/03 04:07:28;;;;;;;3.70;2.42;;;307.20;1996.80;;;;;;5036400;28;20056;-61
2021/05/03 04:10:04;;;;;;;3.42;2.40;;;307.20;1996.80;;;;;;5036185;28;20558;-59
2021/05/03 04:26:11;;;;;;;3.10;2.20;;;307.60;1920.00;;;;;;5036066;28;20045;-59
2021/05/03 04:28:37;;;;;;;2.95;2.50;;;307.70;1920.00;;;;;;5036173;28;20025;-59
2021/05/03 04:31:04;;;;;;;3.10;2.45;;;307.80;1894.40;;;;;;5035766;28;20452;-60
2021/05/03 04:33:30;;;;;;;3.20;2.45;;;307.80;1894.40;;;;;;5035795;28;20475;-58
2021/05/03 04:35:55;;;;;;;2.78;2.47;;;307.90;1868.80;;;;;;5035704;28;20032;-61
2021/05/03 04:38:21;;;;;;;3.20;2.47;;;308.00;1868.80;;;;;;5035548;28;20034;-61
2021/05/03 04:40:47;;;;;;;4.25;2.88;;;308.00;1843.20;;;;;;5035959;28;20067;-61
2021/05/03 04:43:16;;;;;;;4.32;2.75;;;308.10;1843.20;;;;;;5035675;28;20494;-61
2021/05/03 04:45:41;;;;;;;3.00;2.50;;;308.10;1817.60;;;;;;5034509;28;20479;-59
2021/05/03 04:48:07;;;;;;;3.90;2.70;;;308.10;1817.60;;;;;;5035587;28;20033;-60
2021/05/03 04:50:33;;;;;;;3.45;2.80;;;332.80;1868.80;;;;;;5035717;28;20481;-58
2021/05/03 04:52:59;;;;;;;3.53;2.85;;;332.90;1843.20;;;;;;5035297;28;20112;-59
2021/05/03 04:55:25;;;;;;;3.17;2.40;;;332.90;1817.60;;;;;;5035388;28;20109;-61
2021/05/03 04:57:50;;;;;;;4.53;2.88;;;333.00;1843.20;;;;;;5035266;28;20039;-59
2021/05/03 05:00:17;;;;;;;3.92;2.72;;;333.10;1817.60;;;;;;5033942;28;20029;-59
2021/05/03 05:02:42;;;;;;;4.28;2.75;;;333.20;1792.00;;;;;;5035174;28;20029;-59
2021/05/03 05:05:11;;;;;;;4.55;2.80;;;333.20;1792.00;;;;;;5035508;28;20022;-59
2021/05/03 05:07:37;;;;;;;3.38;2.70;;;333.40;1766.40;;;;;;5035357;28;20029;-63
2021/05/03 05:10:04;;;;;;;4.07;2.90;;;333.60;1766.40;;;;;;5034945;28;20045;-62
2021/05/03 05:12:30;;;;;;;3.45;2.85;;;333.60;1740.80;;;;;;5034945;28;20539;-63
2021/05/03 05:14:55;;;;;;;4.07;2.90;;;333.70;1715.20;;;;;;5034002;28;20128;-63
2021/05/03 05:17:21;;;;;;;4.03;2.95;;;358.40;1715.20;;;;;;5035119;28;20468;-59
2021/05/03 05:19:47;;;;;;;4.68;3.30;;;358.40;1715.20;;;;;;5034823;28;20026;-61
2021/05/03 05:22:13;;;;;;;3.55;2.80;;;358.50;1689.60;;;;;;5035036;28;20479;-59
2021/05/03 05:24:39;;;;;;;3.30;2.75;;;358.70;1664.00;;;;;;5034728;28;20056;-61
2021/05/03 05:27:05;;;;;;;6.85;2.80;;;358.90;1638.40;;;;;;5035424;28;20068;-65
2021/05/03 05:29:31;;;;;;;3.20;2.80;;;359.00;1612.80;;;;;;5034567;28;20084;-62
2021/05/03 05:31:57;;;;;;;4.80;3.30;;;359.00;1638.40;;;;;;5034729;28;20049;-62
2021/05/03 05:34:23;;;;;;;3.80;2.83;;;359.10;1612.80;;;;;;5034747;28;20025;-58
2021/05/03 05:36:49;;;;;;;4.78;3.05;;;359.20;1612.80;;;;;;5034494;28;20036;-58
2021/05/03 05:39:14;;;;;;;5.38;3.30;;;359.30;1587.20;;;;;;5034759;28;20151;-58
2021/05/03 05:41:41;;;;;;;3.78;3.17;;;359.20;1612.80;;;;;;5034835;28;20066;-59
2021/05/03 05:44:07;;;;;;;3.97;3.40;;;359.30;1612.80;;;;;;5034502;28;20026;-62
2021/05/03 05:46:37;;;;;;;4.15;3.20;;;359.20;1612.80;;;;;;5034350;28;20022;-60
2021/05/03 05:49:04;;;;;;;7.45;3.28;;;384.00;1612.80;;;;;;5033098;28;20471;-60
2021/05/03 05:51:30;;;;;;;4.00;3.03;;;384.00;1587.20;;;;;;5034363;28;20033;-63
2021/05/03 05:53:56;;;;;;;5.15;3.20;;;384.20;1587.20;;;;;;5034205;28;20029;-62
2021/05/03 05:56:22;;;;;;;3.42;3.00;;;384.50;1536.00;;;;;;5034155;28;20411;-59
2021/05/03 05:58:48;;;;;;;4.10;3.42;;;384.60;1561.60;;;;;;5033843;28;20032;-59
2021/05/03 06:01:14;;;;;;;5.30;3.20;;;384.70;1536.00;;;;;;5034051;28;20475;-62
2021/05/03 06:03:41;;;;;;;3.72;3.10;;;384.80;1510.40;;;;;;5033432;28;20021;-59
2021/05/03 06:06:07;;;;;;;4.55;3.65;;;384.90;1510.40;;;;;;5034029;28;20043;-59
2021/05/03 06:08:36;;;;;;;4.50;3.20;;;409.80;1510.40;;;;;;5033931;28;20033;-62
2021/05/03 06:11:02;;;;;;;3.83;3.28;;;409.80;1510.40;;;;;;5034086;28;20260;-64
2021/05/03 06:13:28;;;;;;;4.90;3.80;;;409.80;1510.40;;;;;;5033634;28;20052;-60
2021/05/03 06:15:55;;;;;;;4.85;3.50;;;409.70;1484.80;;;;;;5034064;28;20037;-58
2021/05/03 06:18:20;;;;;;;4.70;3.75;;;384.90;1484.80;;;;;;5033766;28;20070;-61
2021/05/03 06:20:46;;;;;;;5.30;4.13;;;409.60;1510.40;;;;;;5033966;28;20104;-59
2021/05/03 06:23:12;;;;;;;4.25;3.50;;;384.80;1510.40;;;;;;5033375;28;20491;-59
2021/05/03 06:25:39;;;;;;;4.40;3.53;;;384.60;1484.80;;;;;;5033722;28;20446;-59
2021/05/03 06:28:05;;;;;;;5.65;3.90;;;384.40;1510.40;;;;;;5033763;28;20037;-59
2021/05/03 06:30:31;;;;;;;4.85;3.70;;;384.30;1484.80;;;;;;5033550;28;20048;-59
2021/05/03 06:32:57;;;;;;;5.10;3.60;;;384.20;1510.40;;;;;;5033824;28;20116;-59
2021/05/03 06:35:23;;;;;;;7.55;4.18;;;359.30;1510.40;;;;;;5033431;28;20113;-58
2021/05/03 06:37:51;;;;;;;4.90;3.72;;;359.20;1536.00;;;;;;5033502;28;20032;-62
2021/05/03 06:40:17;;;;;;;4.88;4.15;;;359.10;1561.60;;;;;;5033681;28;20025;-61
2021/05/03 06:42:43;;;;;;;5.10;4.03;;;359.00;1561.60;;;;;;5033473;28;20029;-59
2021/05/03 06:45:10;;;;;;;5.10;4.10;;;358.90;1587.20;;;;;;5033728;28;20091;-59
2021/05/03 06:47:37;;;;;;;6.90;4.13;;;358.90;1587.20;;;;;;5032158;28;20024;-61
2021/05/03 06:50:11;;;;;;;5.38;4.20;;;358.90;1612.80;;;;;;5033606;28;20030;-60
2021/05/03 06:52:37;;;;;;;4.93;3.90;;;358.90;1612.80;;;;;;5033503;28;20053;-60
2021/05/03 06:55:04;;;;;;;5.28;4.10;;;358.90;1587.20;;;;;;5033394;28;20267;-59
2021/05/03 06:57:29;;;;;;;5.22;4.00;;;358.90;1587.20;;;;;;5033427;28;20037;-60
2021/05/03 06:59:55;;;;;;;6.70;4.20;;;359.00;1587.20;;;;;;5033391;28;20371;-61
2021/05/03 07:02:23;;;;;;;5.30;4.20;;;359.00;1587.20;;;;;;5033365;28;20025;-60
2021/05/03 07:04:48;;;;;;;7.78;4.30;;;359.10;1612.80;;;;;;5033056;28;20033;-59
2021/05/03 07:07:14;;;;;;;5.22;4.28;;;359.00;1587.20;;;;;;5033489;28;20044;-59
2021/05/03 07:09:43;;;;;;;5.53;4.50;;;359.00;1561.60;;;;;;5033477;28;20013;-58
2021/05/03 07:12:09;;;;;;;5.35;4.75;;;359.00;1536.00;;;;;;5033497;28;20028;-61
2021/05/03 07:14:36;;;;;;;7.25;4.53;;;359.00;1510.40;;;;;;5033479;28;20443;-61
2021/05/03 07:17:05;;;;;;;6.65;4.57;;;359.10;1536.00;;;;;;5036922;28;20038;-62
2021/05/03 07:19:32;;;;;;;6.32;4.85;;;359.20;1536.00;;;;;;5037280;28;20101;-63
2021/05/03 07:21:59;;;;;;;5.38;4.50;;;359.10;1510.40;;;;;;5037039;28;20041;-62
2021/05/03 07:24:25;;;;;;;5.55;4.70;;;359.10;1484.80;;;;;;5037151;28;20383;-59
2021/05/03 07:26:51;;;;;;;6.68;4.60;;;359.00;1459.20;;;;;;5037337;28;20025;-58
2021/05/03 07:29:17;;;;;;;7.28;5.00;;;359.00;1459.20;;;;;;5036712;28;20502;-58
2021/05/03 07:31:43;;;;;;;6.57;4.47;;;359.10;1484.80;;;;;;5036750;28;20041;-59
2021/05/03 07:34:10;;;;;;;5.50;4.63;;;359.20;1459.20;;;;;;5037077;28;20032;-65
2021/05/03 07:36:36;;;;;;;6.55;4.68;;;359.30;1433.60;;;;;;5036868;28;20041;-64
2021/05/03 07:39:04;;;;;;;6.68;4.90;;;359.30;1408.00;;;;;;5036988;28;20378;-62
2021/05/03 07:41:30;;;;;;;7.05;5.00;;;384.10;1408.00;;;;;;5036923;28;20025;-62
2021/05/03 07:43:56;;;;;;;7.05;4.80;;;384.30;1382.40;;;;;;5036526;28;20463;-63
2021/05/03 07:46:24;;;;;;;7.20;4.82;;;384.60;1382.40;;;;;;5036833;28;20029;-62
2021/05/03 07:48:51;;;;;;;8.02;5.05;;;384.90;1356.80;;;;;;5036616;28;20060;-64
2021/05/03 07:51:17;;;;;;;7.65;5.32;;;409.60;1331.20;;;;;;5036826;28;20018;-60
2021/05/03 07:53:43;;;;;;;9.98;7.43;;;409.70;1331.20;;;;;;5036656;28;20029;-62
2021/05/03 07:56:15;;;;;;;7.65;4.95;;;409.80;1331.20;;;;;;5036325;28;20021;-58
2021/05/03 07:58:42;;;;;;;6.32;5.05;;;409.80;1356.80;;;;;;5036427;28;20471;-62
2021/05/03 08:01:08;;;;;;;6.50;5.18;;;409.80;1305.60;;;;;;5036555;28;20017;-66
2021/05/03 08:03:38;;;;;;;6.13;4.93;;;409.90;1305.60;;;;;;5036587;28;20036;-64
2021/05/03 08:06:04;;;;;;;7.38;5.43;;;409.90;1305.60;;;;;;5036077;28;20026;-62
2021/05/03 08:08:30;;;;;;;10.60;6.63;;;409.90;1305.60;;;;;;5036489;28;20025;-59
2021/05/03 08:10:56;;;;;;;6.78;5.13;;;409.90;1280.00;;;;;;5035830;28;20033;-63
2021/05/03 08:13:22;;;;;;;6.20;4.65;;;409.90;1280.00;;;;;;5034875;28;20060;-64
2021/05/03 08:15:49;;;;;;;5.65;4.70;;;409.60;1280.00;;;;;;5035991;28;20045;-63
2021/05/03 08:18:15;;;;;;;7.57;5.25;;;384.90;1254.40;;;;;;5035940;28;20084;-58
2021/05/03 08:20:41;;;;;;;7.55;5.07;;;384.90;1280.00;;;;;;5036150;28;20459;-61
2021/05/03 08:23:12;;;;;;;6.13;5.20;;;409.60;1280.00;;;;;;5029115;28;20032;-62
2021/05/03 08:25:37;;;;;;;7.63;4.82;;;409.70;1280.00;;;;;;5027062;28;20526;-61
2021/05/03 08:28:03;;;;;;;7.45;5.63;;;409.80;1280.00;;;;;;5015239;28;20022;-61
2021/05/03 08:30:29;;;;;;;8.02;5.18;;;409.90;1280.00;;;;;;5015756;28;20075;-61
2021/05/03 08:32:55;;;;;;;9.07;5.90;;;409.80;1254.40;;;;;;5026497;28;20029;-60
2021/05/03 08:35:21;;;;;;;9.63;5.80;;;409.90;1280.00;;;;;;5020229;28;20033;-59
2021/05/03 08:37:47;;;;;;;9.35;5.82;;;409.90;1228.80;;;;;;5014673;28;20496;-63
2021/05/03 08:40:14;;;;;;;9.20;5.22;;;410.00;1203.20;;;;;;5014660;28;20045;-59
2021/05/03 08:42:41;;;;;;;10.82;5.88;;;410.10;1177.60;;;;;;5019562;28;20025;-66
2021/05/03 08:45:08;;;;;;;8.45;5.18;;;410.10;1177.60;;;;;;5024983;28;20121;-57
2021/05/03 08:47:39;;;;;;;7.20;4.90;;;410.10;1152.00;;;;;;5023380;28;20030;-61
2021/05/03 08:50:11;;;;;;;7.05;4.60;;;410.30;1152.00;;;;;;5015769;28;20018;-65
2021/05/03 08:52:48;;;;;;;7.05;5.07;;;410.30;1152.00;;;;;;5020467;28;20096;-62
2021/05/03 08:55:14;;;;;;;7.78;5.88;;;410.30;1152.00;;;;;;5025271;28;20047;-62
2021/05/03 08:57:41;;;;;;;8.48;7.05;;;410.30;1152.00;;;;;;5014919;28;20124;-58
2021/05/03 09:00:14;;;;;;;6.82;4.72;;;410.30;1177.60;;;;;;5020211;28;20096;-58
2021/05/03 09:02:43;;;;;;;7.18;4.97;;;410.30;1177.60;;;;;;5022512;28;20113;-58
2021/05/03 09:05:09;;;;;;;11.45;6.55;;;410.30;1152.00;;;;;;5021347;28;20026;-58
2021/05/03 09:07:35;;;;;;;13.60;6.97;;;410.40;1177.60;;;;;;5035255;28;20026;-59
2021/05/03 09:10:13;;;;;;;6.82;5.32;;;410.50;1177.60;;;;;;5035077;28;20482;-58
2021/05/03 09:12:39;;;;;;;6.95;5.03;;;410.40;1152.00;;;;;;5034953;28;20037;-62
2021/05/03 09:15:05;;;;;;;10.63;5.95;;;410.50;1152.00;;;;;;5035938;28;20036;-57
2021/05/03 09:17:36;;;;;;;6.82;5.57;;;435.40;1152.00;;;;;;5028577;28;20041;-59
2021/05/03 09:20:14;;;;;;;6.80;5.70;;;435.50;1126.40;;;;;;5029359;28;20506;-57
2021/05/03 09:25:35;;;;;;;6.95;5.63;;;435.80;1075.20;;;;;;5030899;28;20037;-59
2021/05/03 09:28:30;;;;;;;8.35;5.45;;;436.00;1049.60;;;;;;5028340;28;20021;-59
2021/05/03 09:30:56;;;;;;;11.38;8.95;;;436.10;1075.20;;;;;;5007671;28;20050;-62
2021/05/03 09:33:23;;;;;;;10.57;7.68;;;460.80;1126.40;;;;;;5008072;28;20379;-60
2021/05/03 09:36:07;;;;;;;12.27;8.23;;;460.80;1100.80;;;;;;5007953;28;20045;-57
2021/05/03 09:38:41;;;;;;;29.98;21.48;;;461.00;1049.60;;;;;;5006311;28;20521;-59
2021/05/03 09:41:19;;;;;;;16.65;14.52;;;461.10;1024.00;;;;;;5007752;28;20129;-58
2021/05/03 09:43:55;;;;;;;6.70;4.80;;;461.20;1024.00;;;;;;5007887;28;20101;-63
2021/05/03 09:46:37;;;;;;;7.38;5.25;;;461.30;1024.00;;;;;;5008108;28;20022;-58
2021/05/03 09:49:16;;;;;;;6.00;4.80;;;461.10;998.40;;;;;;5007427;28;20124;-59
2021/05/03 09:51:46;;;;;;;8.95;5.85;;;436.00;998.40;;;;;;4990709;28;20026;-57
2021/05/03 09:54:25;;;;;;;7.50;5.45;;;435.70;1024.00;;;;;;4990927;28;20049;-63
2021/05/03 09:56:54;;;;;;;6.05;4.70;;;435.70;1024.00;;;;;;5008584;28;20042;-56
2021/05/03 09:59:50;;;;;;;5.07;4.10;;;435.60;1024.00;;;;;;5009633;28;20018;-57
2021/05/03 10:04:52;;;;;;;6.78;5.20;;;435.70;1024.00;;;;;;5010068;28;20045;-56
2021/05/03 10:07:20;;;;;;;6.47;5.05;;;435.80;1049.60;;;;;;5017667;28;20053;-57
2021/05/03 10:09:50;;;;;;;6.47;4.60;;;435.80;1024.00;;;;;;5031500;28;20021;-59
2021/05/03 10:12:17;;;;;;;5.07;3.58;;;435.80;998.40;;;;;;5031567;28;20037;-58
2021/05/03 10:14:45;;;;;;;7.45;4.35;;;435.80;972.80;;;;;;5031885;28;20096;-58
2021/05/03 10:17:13;;;;;;;6.45;4.13;;;435.70;972.80;;;;;;5031123;28;20087;-57
2021/05/03 10:19:39;;;;;;;6.40;4.25;;;435.80;972.80;;;;;;5031541;28;20433;-57
2021/05/03 10:22:05;;;;;;;5.82;3.95;;;435.90;947.20;;;;;;5030296;28;20026;-58
2021/05/03 10:24:32;;;;;;;5.07;4.00;;;435.90;947.20;;;;;;5028189;28;20510;-57
2021/05/03 10:26:58;;;;;;;7.00;4.05;;;436.00;921.60;;;;;;5026810;28;20112;-59
2021/05/03 10:29:41;;;;;;;5.55;4.20;;;435.70;921.60;;;;;;5019627;28;20379;-61
2021/05/03 10:32:09;;;;;;;5.05;3.70;;;436.10;947.20;;;;;;5013113;28;20030;-58
2021/05/03 10:34:49;;;;;;;4.72;3.67;;;460.80;947.20;;;;;;5013595;28;20030;-58
2021/05/03 10:37:30;;;;;;;5.38;3.92;;;460.90;921.60;;;;;;5020311;28;20044;-62
2021/05/03 10:40:14;;;;;;;5.65;4.07;;;461.00;921.60;;;;;;5030039;28;20044;-59
2021/05/03 10:43:02;;;;;;;5.55;3.53;;;460.90;921.60;;;;;;5029435;28;20025;-61
2021/05/03 10:51:32;;;;;;;4.28;3.55;;;460.80;947.20;;;;;;5029004;28;20120;-60
2021/05/03 10:54:24;;;;;;;6.95;3.45;;;436.10;921.60;;;;;;5030780;28;20480;-61
2021/05/03 10:56:50;;;;;;;4.60;3.65;;;436.10;921.60;;;;;;5030500;28;20041;-60
2021/05/03 10:59:17;;;;;;;6.43;3.67;;;460.80;947.20;;;;;;5026119;28;20113;-56
2021/05/03 11:01:52;;;;;;;5.07;3.67;;;436.10;921.60;;;;;;5029327;28;20403;-59
2021/05/03 11:04:21;;;;;;;6.57;3.70;;;436.10;947.20;;;;;;5029624;28;20044;-61
2021/05/03 11:06:46;;;;;;;8.13;3.88;;;460.90;921.60;;;;;;5029013;28;20065;-59
2021/05/03 11:09:28;;;;;;;4.85;3.55;;;461.10;921.60;;;;;;5030105;28;20063;-58
2021/05/03 11:12:06;;;;;;;11.65;7.80;;;461.30;896.00;;;;;;5028225;28;20100;-59
2021/05/03 11:14:37;;;;;;;6.07;4.65;;;461.30;921.60;;;;;;5028405;28;20036;-60
2021/05/03 11:17:13;;;;;;;;;;;;;;;;;;;;;
2021/05/03 11:22:20;;;;;;;5.70;3.85;;;461.40;896.00;;;;;;5021606;28;20112;-60
2021/05/03 11:24:58;;;;;;;6.88;4.00;;;461.30;947.20;;;;;;5031596;28;20029;-61
2021/05/03 11:28:02;;;;;;;4.80;3.92;;;461.20;921.60;;;;;;5011696;28;20430;-63
2021/05/03 11:30:37;;;;;;;5.78;4.68;;;461.00;947.20;;;;;;5012392;28;20136;-63
2021/05/03 11:33:25;;;;;;;;;;;460.80;947.20;;;;;;5012524;28;20030;-64
2021/05/03 11:36:04;;;;;;;5.05;3.92;;;436.10;947.20;;;;;;5012776;28;20354;-63
2021/05/03 11:38:47;;;;;;;5.85;4.63;;;436.10;947.20;;;;;;5015730;28;20503;-64
2021/05/03 11:46:33;;;;;;;5.75;4.25;;;460.80;972.80;;;;;;5012983;28;20052;-64
2021/05/03 11:49:09;;;;;;;6.05;4.68;;;460.80;972.80;;;;;;5013416;28;20133;-64
2021/05/03 11:51:59;;;;;;;9.80;6.90;;;460.90;972.80;;;;;;5012783;28;20176;-63
2021/05/03 11:54:41;;;;;;;7.30;5.10;;;461.10;972.80;;;;;;5011758;28;20037;-62
2021/05/03 11:57:18;;;;;;;5.78;4.28;;;461.10;947.20;;;;;;5021729;28;20041;-63
2021/05/03 11:59:46;;;;;;;4.90;4.10;;;461.20;972.80;;;;;;5019081;28;20118;-62
2021/05/03 12:02:15;;;;;;;7.60;4.38;;;461.30;947.20;;;;;;5029307;28;20391;-61
2021/05/03 12:04:46;;;;;;;6.00;4.55;;;461.40;921.60;;;;;;5036324;28;20053;-61
2021/05/03 12:07:20;;;;;;;6.82;4.57;;;461.50;921.60;;;;;;5019217;28;20062;-63
2021/05/03 12:09:48;;;;;;;7.40;5.70;;;461.70;921.60;;;;;;5015847;28;20053;-63
2021/05/03 12:12:15;;;;;;;7.00;4.80;;;486.40;896.00;;;;;;5016196;28;20057;-63
2021/05/03 12:14:48;;;;;;;6.05;4.28;;;486.40;896.00;;;;;;5016045;28;20022;-63
2021/05/03 12:17:15;;;;;;;10.75;7.93;;;486.50;896.00;;;;;;5016452;28;20481;-64
2021/05/03 12:19:41;;;;;;;7.78;5.50;;;486.60;896.00;;;;;;5016309;28;20125;-62
2021/05/03 12:22:07;;;;;;;5.57;4.53;;;486.60;870.40;;;;;;5017819;28;20089;-64
2021/05/03 12:24:38;;;;;;;7.47;5.45;;;486.80;844.80;;;;;;5024544;28;20030;-62
2021/05/03 12:27:04;;;;;;;7.30;4.57;;;486.90;870.40;;;;;;5018618;28;20087;-63
2021/05/03 12:29:30;;;;;;;6.35;4.50;;;486.90;844.80;;;;;;5055527;28;20034;-63
2021/05/03 12:31:56;;;;;;;9.38;6.93;;;486.90;896.00;;;;;;5017243;28;20054;-62
2021/05/03 12:34:23;;;;;;;5.45;4.68;;;486.80;870.40;;;;;;5023471;28;20412;-63
2021/05/03 12:37:07;;;;;;;8.27;6.22;;;486.90;870.40;;;;;;5021824;28;20498;-61
2021/05/03 12:39:39;;;;;;;8.95;6.93;;;487.00;896.00;;;;;;5031219;28;20056;-62
2021/05/03 12:42:12;;;;;;;6.25;5.30;;;487.00;870.40;;;;;;5021506;28;20029;-62
2021/05/03 12:44:56;;;;;;;7.90;4.90;;;487.10;870.40;;;;;;5018069;28;20041;-63
2021/05/03 12:50:31;;;;;;;6.07;5.00;;;487.10;819.20;;;;;;5015848;28;20026;-63
2021/05/03 13:03:38;;;;;;;5.80;4.15;;;487.10;819.20;;;;;;5015531;28;20045;-63
2021/05/03 13:06:14;;;;;;;4.78;3.70;;;487.20;819.20;;;;;;5047294;28;20121;-63
2021/05/03 13:29:17;;;;;;;7.28;4.03;;;512.30;793.60;;;;;;5013263;28;20460;-64
2021/05/03 13:31:45;;;;;;;5.55;4.57;;;512.50;768.00;;;;;;5012947;28;20049;-64
2021/05/03 13:34:13;;;;;;;6.80;5.00;;;512.70;716.80;;;;;;5012567;28;20018;-63